createdAt,value
2022-12-19T08:45:36.884Z,-1
2022-12-19T08:50:18.211Z,-1
2022-12-19T08:55:00.458Z,-0.8
2022-12-19T08:59:42.777Z,-0.7
2022-12-19T09:04:25.000Z,-0.6
2022-12-19T09:09:07.322Z,-0.7
2022-12-19T09:13:49.732Z,-0.7
2022-12-19T09:18:31.900Z,-0.6
2022-12-19T09:23:14.205Z,-0.5
2022-12-19T09:27:56.440Z,-0.6
2022-12-19T09:32:38.769Z,-0.2
2022-12-19T09:37:21.042Z,-0.2
2022-12-19T09:42:03.347Z,-0.1
2022-12-19T09:46:45.558Z,-0.1
2022-12-19T09:51:27.935Z,0.2
2022-12-19T09:56:10.125Z,0.3
2022-12-19T10:00:52.463Z,0.2
2022-12-19T10:05:34.776Z,0.3
2022-12-19T10:10:17.007Z,0.5
2022-12-19T10:14:59.413Z,0.6
2022-12-19T10:19:41.565Z,0.9
2022-12-19T10:24:23.886Z,0.9
2022-12-19T10:29:06.114Z,1
2022-12-19T10:33:48.475Z,0.9
2022-12-19T10:38:30.675Z,1.1
2022-12-19T10:43:13.038Z,1
2022-12-19T10:47:55.243Z,1
2022-12-19T10:52:37.555Z,1.3
2022-12-19T10:57:19.871Z,1.6
2022-12-19T11:02:02.116Z,1.9
2022-12-19T11:06:44.512Z,1.6
2022-12-19T11:11:26.673Z,1.7
2022-12-19T11:16:09.007Z,1.5
2022-12-19T11:20:51.239Z,1.8
2022-12-19T11:25:33.557Z,1.5
2022-12-19T11:30:15.857Z,1.6
2022-12-19T11:34:58.112Z,1.7
2022-12-19T11:39:40.429Z,1.3
2022-12-19T11:44:22.665Z,1.6
2022-12-19T11:49:04.962Z,1.7
2022-12-19T11:53:47.230Z,1.7
2022-12-19T11:58:29.579Z,1.7
2022-12-19T12:03:11.788Z,1.7
2022-12-19T12:07:54.153Z,1.9
2022-12-19T12:12:36.342Z,1.8
2022-12-19T12:17:18.685Z,1.9
2022-12-19T12:22:00.902Z,1.9
2022-12-19T12:26:43.225Z,2
2022-12-19T12:31:25.455Z,2.1
2022-12-19T12:36:07.786Z,2.1
2022-12-19T12:45:32.351Z,1.8
2022-12-19T12:50:14.671Z,2
2022-12-19T12:54:56.892Z,1.9
2022-12-19T12:59:39.275Z,2.1
2022-12-19T13:04:21.490Z,2.1
2022-12-19T13:09:03.734Z,2.3
2022-12-19T13:13:46.065Z,2.1
2022-12-19T13:18:28.286Z,2.1
2022-12-19T13:23:10.607Z,1.8
2022-12-19T13:32:35.166Z,1.8
2022-12-19T13:37:17.497Z,1.8
2022-12-19T13:41:59.913Z,1.7
2022-12-19T13:46:42.054Z,1.7
2022-12-19T13:51:24.280Z,2
2022-12-19T14:00:48.836Z,1.9
2022-12-19T14:05:31.168Z,1.7
2022-12-19T14:10:13.391Z,1.6
2022-12-19T14:19:37.960Z,1.5
2022-12-19T14:24:19.366Z,1.6
2022-12-19T14:29:01.597Z,1.5
2022-12-19T14:33:43.837Z,1.5
2022-12-19T14:38:26.162Z,1.4
2022-12-19T14:43:08.414Z,1.4
2022-12-19T14:47:53.982Z,1.5
2022-12-19T14:52:33.086Z,1.4
2022-12-19T14:57:15.283Z,1.4
2022-12-19T15:01:57.609Z,1.3
